Time;durP1;ratioP1;P1;durP2;ratioP2;P2;SDS_P1;SDS_P2;PMS_P1;PMS_P2;Temp;Humidity;BMP_temperature;BMP_pressure;BME280_temperature;BME280_humidity;BME280_pressure;Samples;Min_cycle;Max_cycle;Signal;HPM_P1;HPM_P2
2022/12/13 00:01:31;;;;;;;49.78;20.92;;;-3.60;99.90;;;;;;5095024;28;20040;-84
2022/12/13 00:04:01;;;;;;;48.97;20.30;;;-4.10;99.90;;;;;;5112017;28;20043;-84
2022/12/13 00:06:29;;;;;;;56.45;20.60;;;-4.10;99.90;;;;;;5094462;28;20058;-83
2022/12/13 00:08:57;;;;;;;50.08;20.17;;;-4.00;99.90;;;;;;5078345;28;20040;-83
2022/12/13 00:11:24;;;;;;;50.58;20.17;;;-4.00;99.90;;;;;;5095125;28;20043;-84
2022/12/13 00:13:50;;;;;;;46.08;19.67;;;-4.00;99.90;;;;;;5094768;28;20032;-84
2022/12/13 00:16:22;;;;;;;54.90;19.88;;;-4.00;99.90;;;;;;5111482;28;20028;-83
2022/12/13 00:18:54;;;;;;;52.35;21.30;;;-4.00;99.90;;;;;;5110972;28;20067;-84
2022/12/13 00:21:23;;;;;;;49.00;19.48;;;-4.00;99.90;;;;;;5111747;28;20122;-84
2022/12/13 00:23:50;;;;;;;54.00;20.88;;;-4.00;99.90;;;;;;5093818;28;20134;-84
2022/12/13 00:26:22;;;;;;;47.95;21.17;;;-4.00;99.90;;;;;;5061413;28;20127;-83
2022/12/13 00:28:50;;;;;;;54.15;21.58;;;-4.00;99.90;;;;;;5094319;28;20079;-84
2022/12/13 00:31:18;;;;;;;50.85;19.63;;;-3.80;99.90;;;;;;5094625;28;20032;-84
2022/12/13 00:33:45;;;;;;;48.55;20.10;;;-4.00;99.90;;;;;;5077374;28;20499;-84
2022/12/13 00:36:12;;;;;;;47.75;21.02;;;-4.10;99.90;;;;;;5094330;28;20042;-84
2022/12/13 00:38:39;;;;;;;44.53;19.48;;;-4.10;99.90;;;;;;5094079;28;20067;-84
2022/12/13 00:41:24;;;;;;;47.95;21.13;;;-4.10;99.90;;;;;;5094286;28;20044;-83
2022/12/13 00:43:50;;;;;;;46.65;19.00;;;-4.10;99.90;;;;;;5110462;28;20044;-83
2022/12/13 00:46:19;;;;;;;45.80;20.15;;;-3.40;99.90;;;;;;5094211;28;20127;-84
2022/12/13 00:48:54;;;;;;;46.58;20.35;;;-3.30;99.90;;;;;;5093341;28;20447;-83
2022/12/13 00:51:23;;;;;;;47.75;19.33;;;-3.50;99.90;;;;;;5110992;28;20043;-84
2022/12/13 00:53:50;;;;;;;47.65;19.48;;;-4.20;99.90;;;;;;5093812;28;20073;-84
2022/12/13 00:56:20;;;;;;;48.28;19.10;;;-4.30;99.90;;;;;;5110694;28;20079;-84
2022/12/13 00:58:48;;;;;;;50.28;20.05;;;-4.30;99.90;;;;;;5110158;28;20043;-84
2022/12/13 01:01:17;;;;;;;46.15;20.23;;;-4.30;99.90;;;;;;5077383;28;20400;-84
2022/12/13 01:03:44;;;;;;;48.40;19.55;;;-4.30;99.90;;;;;;5093397;28;20108;-84
2022/12/13 01:06:25;;;;;;;48.40;20.23;;;-4.40;99.90;;;;;;5077328;28;20040;-84
2022/12/13 01:08:51;;;;;;;49.47;19.98;;;-4.40;99.90;;;;;;5109752;28;20035;-85
2022/12/13 01:11:18;;;;;;;46.33;20.13;;;-4.40;99.90;;;;;;5060694;28;20111;-84
2022/12/13 01:13:45;;;;;;;45.65;19.17;;;-4.40;99.90;;;;;;5060015;28;20078;-84
2022/12/13 01:16:12;;;;;;;40.30;18.15;;;-4.50;99.90;;;;;;5093523;28;20131;-84
2022/12/13 01:18:40;;;;;;;52.88;19.65;;;-4.50;99.90;;;;;;5092942;28;20040;-84
2022/12/13 01:21:15;;;;;;;46.67;18.60;;;-4.50;99.90;;;;;;5109960;28;20166;-84
2022/12/13 01:23:43;;;;;;;44.50;19.27;;;-4.50;99.90;;;;;;5109546;28;20048;-83
2022/12/13 01:26:17;;;;;;;42.90;18.23;;;-4.60;99.90;;;;;;5110168;28;20743;-84
2022/12/13 01:28:44;;;;;;;46.45;19.88;;;-3.80;99.90;;;;;;5092689;28;20144;-84
2022/12/13 01:31:13;;;;;;;45.30;18.73;;;-4.60;99.90;;;;;;5093347;28;20071;-84
2022/12/13 01:33:40;;;;;;;49.95;19.58;;;-4.60;99.90;;;;;;5109590;28;20044;-84
2022/12/13 01:36:12;;;;;;;44.92;19.33;;;-4.50;99.90;;;;;;5110101;28;20038;-83
2022/12/13 01:38:38;;;;;;;46.63;19.50;;;-4.50;99.90;;;;;;5092930;28;20511;-80
2022/12/13 01:41:05;;;;;;;42.15;18.55;;;-4.60;99.90;;;;;;5076510;28;20040;-83
2022/12/13 01:43:35;;;;;;;42.08;19.58;;;-4.60;99.90;;;;;;5109922;28;20774;-83
2022/12/13 01:46:05;;;;;;;44.75;19.60;;;-4.50;99.90;;;;;;5109375;28;20500;-84
2022/12/13 01:48:38;;;;;;;47.67;20.05;;;-4.60;99.90;;;;;;5092753;28;20077;-84
2022/12/13 01:51:08;;;;;;;44.13;19.83;;;-4.60;99.90;;;;;;5108847;28;20097;-83
2022/12/13 01:53:39;;;;;;;47.63;19.52;;;-4.60;99.90;;;;;;5092899;28;20036;-82
2022/12/13 01:56:12;;;;;;;40.55;18.15;;;-4.70;99.90;;;;;;5109637;28;20040;-83
2022/12/13 01:58:40;;;;;;;47.70;18.60;;;-4.70;99.90;;;;;;5092906;28;20380;-84
2022/12/13 02:01:08;;;;;;;42.78;19.30;;;-4.70;99.90;;;;;;5109485;28;20557;-84
2022/12/13 02:03:35;;;;;;;44.10;19.05;;;-4.60;99.90;;;;;;5092960;28;20044;-83
2022/12/13 02:06:04;;;;;;;46.67;19.33;;;-4.60;99.90;;;;;;5092664;28;20036;-84
2022/12/13 02:08:33;;;;;;;46.50;19.45;;;-4.60;99.90;;;;;;5109725;28;20040;-84
2022/12/13 02:11:01;;;;;;;49.08;18.85;;;-4.60;99.90;;;;;;5059618;28;20032;-84
2022/12/13 02:13:28;;;;;;;47.90;19.92;;;-4.70;99.90;;;;;;5109088;28;20492;-85
2022/12/13 02:16:13;;;;;;;45.70;19.10;;;-4.70;99.90;;;;;;5092445;28;20044;-85
2022/12/13 02:18:52;;;;;;;44.27;19.67;;;-4.70;99.90;;;;;;5092913;28;20093;-84
2022/12/13 02:22:02;;;;;;;49.78;18.92;;;-4.70;99.90;;;;;;5092342;28;20138;-84
2022/12/13 02:24:44;;;;;;;46.13;19.17;;;-4.70;99.90;;;;;;5092433;28;20048;-84
2022/12/13 02:27:40;;;;;;;46.38;19.55;;;-4.70;99.90;;;;;;5092981;28;20539;-84
2022/12/13 02:30:31;;;;;;;43.70;19.30;;;-4.70;99.90;;;;;;5108823;28;20040;-84
2022/12/13 02:33:15;;;;;;;46.40;19.83;;;-4.70;99.90;;;;;;5092207;28;20362;-83
2022/12/13 02:36:06;;;;;;;52.22;19.98;;;-4.70;99.90;;;;;;5092958;28;20142;-84
2022/12/13 02:38:48;;;;;;;47.35;20.77;;;-4.70;99.90;;;;;;5093130;28;20040;-84
2022/12/13 02:41:22;;;;;;;47.75;19.67;;;-4.70;99.90;;;;;;5092470;28;20110;-83
2022/12/13 02:44:08;;;;;;;45.75;18.92;;;-4.70;99.90;;;;;;5108756;28;20428;-84
2022/12/13 02:46:40;;;;;;;49.33;20.85;;;-4.70;99.90;;;;;;5092254;28;20496;-83
2022/12/13 02:49:08;;;;;;;50.10;20.95;;;-4.70;99.90;;;;;;5092604;28;20079;-84
2022/12/13 02:51:37;;;;;;;52.63;19.13;;;-4.70;99.90;;;;;;5108883;28;20086;-82
2022/12/13 02:54:04;;;;;;;49.67;19.38;;;-4.80;99.90;;;;;;5104380;28;20534;-84
2022/12/13 02:56:31;;;;;;;48.30;20.08;;;-4.80;99.90;;;;;;5108990;28;20039;-84
2022/12/13 02:59:02;;;;;;;46.63;19.02;;;-4.80;99.90;;;;;;5109185;28;20109;-83
2022/12/13 03:01:45;;;;;;;44.30;18.27;;;-4.80;99.90;;;;;;5096617;28;20075;-84
2022/12/13 03:04:24;;;;;;;45.13;19.15;;;-4.80;99.90;;;;;;5112562;28;20539;-84
2022/12/13 03:07:03;;;;;;;44.17;19.55;;;-4.80;99.90;;;;;;5112818;28;20036;-80
2022/12/13 03:09:55;;;;;;;46.72;19.88;;;-4.90;99.90;;;;;;5112926;28;20036;-84
2022/12/13 03:15:43;;;;;;;46.92;18.63;;;-4.90;99.90;;;;;;5112967;28;20055;-83
2022/12/13 03:18:21;;;;;;;42.17;18.35;;;-4.90;99.90;;;;;;5095328;28;20122;-84
2022/12/13 03:20:58;;;;;;;52.75;19.15;;;-4.90;99.90;;;;;;5095520;28;20448;-83
2022/12/13 03:23:27;;;;;;;51.90;18.83;;;-5.00;99.90;;;;;;5095270;28;20052;-84
2022/12/13 03:26:00;;;;;;;46.50;19.10;;;-4.90;99.90;;;;;;5079043;28;20087;-84
2022/12/13 03:28:26;;;;;;;42.85;18.77;;;-4.90;99.90;;;;;;5112632;28;20036;-84
2022/12/13 03:30:53;;;;;;;49.45;20.15;;;-4.50;99.90;;;;;;5096232;28;20051;-84
2022/12/13 03:33:21;;;;;;;51.13;21.02;;;-5.00;99.90;;;;;;5095096;28;20042;-84
2022/12/13 03:35:48;;;;;;;44.90;19.85;;;-5.00;99.90;;;;;;5092335;28;20051;-83
2022/12/13 03:38:16;;;;;;;53.17;20.77;;;-4.90;99.90;;;;;;5058908;28;20044;-84
2022/12/13 03:40:43;;;;;;;45.25;19.17;;;-4.90;99.90;;;;;;5075354;28;20048;-83
2022/12/13 03:43:11;;;;;;;45.75;19.85;;;-4.90;99.90;;;;;;5042217;28;20515;-84
2022/12/13 03:45:37;;;;;;;51.72;20.15;;;-4.90;99.90;;;;;;5075594;28;20571;-84
2022/12/13 03:48:04;;;;;;;48.22;20.00;;;-4.90;99.90;;;;;;5095540;28;20131;-85
2022/12/13 03:50:31;;;;;;;43.92;18.85;;;-4.90;99.90;;;;;;5062200;28;20036;-85
2022/12/13 03:52:59;;;;;;;54.85;21.45;;;-4.90;99.90;;;;;;5078632;28;20044;-84
2022/12/13 03:55:27;;;;;;;53.97;21.58;;;-4.80;99.90;;;;;;5095193;28;20040;-85
2022/12/13 03:57:53;;;;;;;49.22;20.23;;;-4.90;99.90;;;;;;5095219;28;20063;-85
2022/12/13 04:00:20;;;;;;;48.15;21.42;;;-4.80;99.90;;;;;;5111495;28;20036;-85
2022/12/13 04:02:47;;;;;;;51.40;21.25;;;-4.80;99.90;;;;;;5078591;28;20456;-85
2022/12/13 04:05:14;;;;;;;50.85;21.10;;;-4.90;99.90;;;;;;5074666;28;20044;-85
2022/12/13 04:07:40;;;;;;;53.28;19.35;;;-4.80;99.90;;;;;;5091627;28;20102;-85
2022/12/13 04:10:07;;;;;;;51.15;20.27;;;-4.80;99.90;;;;;;5107860;28;20049;-84
2022/12/13 04:15:19;;;;;;;47.80;20.60;;;-4.90;99.90;;;;;;5111211;28;20412;-85
2022/12/13 04:17:46;;;;;;;52.45;21.08;;;-4.90;99.90;;;;;;5094938;28;20122;-85
2022/12/13 04:20:12;;;;;;;47.88;19.67;;;-4.90;99.90;;;;;;5077934;28;20044;-84
2022/12/13 04:22:39;;;;;;;49.22;19.83;;;-4.90;99.90;;;;;;5061197;28;20059;-84
2022/12/13 04:25:06;;;;;;;49.53;19.98;;;-4.90;99.90;;;;;;5077997;28;20044;-85
2022/12/13 04:27:33;;;;;;;55.05;21.50;;;-4.90;99.90;;;;;;5078283;28;20123;-84
2022/12/13 04:30:00;;;;;;;45.78;20.63;;;-4.90;99.90;;;;;;5078120;28;20564;-85
2022/12/13 04:32:26;;;;;;;49.28;19.45;;;-4.90;99.90;;;;;;5094437;28;20541;-83
2022/12/13 04:34:53;;;;;;;48.13;19.20;;;-4.90;99.90;;;;;;5078223;28;20032;-85
2022/12/13 04:37:20;;;;;;;50.20;21.65;;;-4.90;99.90;;;;;;5061306;28;20040;-85
2022/12/13 04:39:46;;;;;;;48.55;20.65;;;-4.90;99.90;;;;;;5111079;28;20071;-85
2022/12/13 04:42:13;;;;;;;53.50;19.95;;;-4.90;99.90;;;;;;5110848;28;20487;-85
2022/12/13 04:44:40;;;;;;;51.17;21.02;;;-5.00;99.90;;;;;;5094298;28;20470;-85
2022/12/13 04:47:07;;;;;;;46.15;20.45;;;-5.00;99.90;;;;;;5077161;28;20119;-85
2022/12/13 04:49:34;;;;;;;49.63;20.05;;;-5.00;99.90;;;;;;5077657;28;20036;-85
2022/12/13 04:52:01;;;;;;;47.28;19.63;;;-5.00;99.90;;;;;;5094493;28;20507;-85
2022/12/13 04:54:31;;;;;;;53.55;21.90;;;-5.00;99.90;;;;;;5093845;28;20032;-85
2022/12/13 04:56:58;;;;;;;49.88;20.60;;;-5.00;99.90;;;;;;5094089;28;20119;-83
2022/12/13 04:59:25;;;;;;;53.47;20.52;;;-5.00;99.90;;;;;;5110614;28;20122;-85
2022/12/13 05:01:51;;;;;;;48.55;20.73;;;-5.00;99.90;;;;;;5093994;28;20090;-84
2022/12/13 05:04:18;;;;;;;47.00;20.42;;;-5.00;99.90;;;;;;5060579;28;20450;-84
2022/12/13 05:06:44;;;;;;;57.15;21.10;;;-5.00;99.90;;;;;;5093652;28;20122;-85
2022/12/13 05:09:11;;;;;;;44.97;19.10;;;-5.00;99.90;;;;;;5076872;28;20047;-84
2022/12/13 05:11:38;;;;;;;51.20;20.95;;;-5.00;99.90;;;;;;5077092;28;20043;-85
2022/12/13 05:14:05;;;;;;;51.63;21.00;;;-5.00;99.90;;;;;;5077543;28;20086;-85
2022/12/13 05:16:31;;;;;;;54.05;20.80;;;-5.00;99.90;;;;;;5093379;28;20085;-85
2022/12/13 05:18:58;;;;;;;48.95;20.08;;;-5.00;99.90;;;;;;5060564;28;20131;-85
2022/12/13 05:21:25;;;;;;;49.65;19.65;;;-5.10;99.90;;;;;;5076392;28;20036;-84
2022/12/13 05:23:51;;;;;;;50.08;20.33;;;-5.10;99.90;;;;;;5076424;28;20090;-84
2022/12/13 05:26:18;;;;;;;50.78;20.85;;;-5.10;99.90;;;;;;5093407;28;20036;-85
2022/12/13 05:28:45;;;;;;;50.88;20.80;;;-5.10;99.90;;;;;;5093745;28;20043;-84
2022/12/13 05:31:12;;;;;;;46.00;20.60;;;-5.10;99.90;;;;;;5093572;28;20046;-84
2022/12/13 05:33:39;;;;;;;48.80;19.48;;;-5.10;99.90;;;;;;5093248;28;20124;-84
2022/12/13 05:36:06;;;;;;;53.00;20.63;;;-5.10;99.90;;;;;;5076776;28;20071;-84
2022/12/13 05:38:32;;;;;;;48.38;19.88;;;-5.10;99.90;;;;;;5076540;28;20036;-84
2022/12/13 05:40:59;;;;;;;53.72;21.02;;;-5.20;99.90;;;;;;5060969;28;20051;-85
2022/12/13 05:43:26;;;;;;;49.97;20.67;;;-5.20;99.90;;;;;;5076587;28;20040;-84
2022/12/13 05:45:53;;;;;;;49.40;20.55;;;-5.20;99.90;;;;;;5059995;28;20044;-83
2022/12/13 05:48:19;;;;;;;46.35;20.15;;;-5.20;99.90;;;;;;5076034;28;20039;-85
2022/12/13 05:50:46;;;;;;;44.65;19.33;;;-5.20;99.90;;;;;;5076327;28;20126;-83
2022/12/13 05:53:14;;;;;;;48.60;19.50;;;-4.70;99.90;;;;;;5076492;28;20412;-84
2022/12/13 05:55:41;;;;;;;44.60;20.73;;;-5.20;99.90;;;;;;5092676;28;20046;-85
2022/12/13 05:58:11;;;;;;;57.08;22.50;;;-5.20;99.90;;;;;;5076556;28;20467;-82
2022/12/13 06:00:38;;;;;;;46.92;20.85;;;-5.30;99.90;;;;;;5076541;28;20036;-84
2022/12/13 06:03:05;;;;;;;47.55;19.38;;;-5.20;99.90;;;;;;5076360;28;20097;-85
2022/12/13 06:05:32;;;;;;;53.25;20.38;;;-5.20;99.90;;;;;;5059527;28;20477;-85
2022/12/13 06:08:00;;;;;;;51.63;20.13;;;-5.20;99.90;;;;;;5094062;28;20036;-85
2022/12/13 06:10:27;;;;;;;51.28;20.92;;;-5.20;99.90;;;;;;5109258;28;20043;-85
2022/12/13 06:12:54;;;;;;;51.95;21.00;;;-5.20;99.90;;;;;;5092802;28;20048;-85
2022/12/13 06:15:20;;;;;;;53.58;21.88;;;-5.20;99.90;;;;;;5092855;28;20051;-84
2022/12/13 06:17:47;;;;;;;47.58;20.23;;;-5.30;99.90;;;;;;5109772;28;20050;-84
2022/12/13 06:20:14;;;;;;;54.92;22.23;;;-5.30;99.90;;;;;;5076620;28;20044;-85
2022/12/13 06:22:41;;;;;;;50.10;20.60;;;-5.20;99.90;;;;;;5091954;28;20036;-85
2022/12/13 06:25:08;;;;;;;54.28;22.20;;;-5.30;99.90;;;;;;5093921;28;20091;-85
2022/12/13 06:27:34;;;;;;;50.30;21.58;;;-5.30;99.90;;;;;;5092567;28;20028;-85
2022/12/13 06:30:01;;;;;;;50.65;21.45;;;-5.30;99.90;;;;;;5059817;28;20104;-85
2022/12/13 06:32:28;;;;;;;48.85;21.52;;;-5.30;99.90;;;;;;5076221;28;20506;-85
2022/12/13 06:34:54;;;;;;;55.75;22.50;;;-5.30;99.90;;;;;;5059774;28;20090;-85
2022/12/13 06:37:21;;;;;;;53.47;21.52;;;-5.30;99.90;;;;;;5092903;28;20051;-85
2022/12/13 06:39:48;;;;;;;60.65;20.92;;;-5.30;99.90;;;;;;5075453;28;20040;-85
2022/12/13 06:42:16;;;;;;;51.78;21.63;;;-5.30;99.90;;;;;;5059336;28;20040;-85
2022/12/13 06:44:43;;;;;;;55.30;21.95;;;-5.30;99.90;;;;;;5092185;28;20063;-84
2022/12/13 06:47:11;;;;;;;58.92;23.08;;;-5.20;99.90;;;;;;5060013;28;20039;-84
2022/12/13 06:49:37;;;;;;;57.03;24.13;;;-5.20;99.90;;;;;;5092483;28;20038;-84
2022/12/13 06:52:04;;;;;;;63.47;24.20;;;-5.20;99.90;;;;;;5092321;28;20119;-85
2022/12/13 06:54:31;;;;;;;57.53;23.75;;;-5.20;99.90;;;;;;5075765;28;20066;-85
2022/12/13 06:56:59;;;;;;;57.47;23.02;;;-5.20;99.90;;;;;;5075704;28;20774;-85
2022/12/13 06:59:25;;;;;;;67.50;27.63;;;-5.20;99.90;;;;;;5092449;28;20132;-82
2022/12/13 07:01:52;;;;;;;76.78;28.35;;;-5.20;99.90;;;;;;5059393;28;20119;-85
2022/12/13 07:04:18;;;;;;;77.93;27.27;;;-5.20;99.90;;;;;;5059373;28;20032;-84
2022/12/13 07:06:45;;;;;;;70.05;26.33;;;-5.20;99.90;;;;;;5108584;28;20153;-85
2022/12/13 07:09:12;;;;;;;59.35;22.75;;;-5.20;99.90;;;;;;5059659;28;20042;-85
2022/12/13 07:11:38;;;;;;;58.28;22.98;;;-5.20;99.90;;;;;;5092764;28;20044;-86
2022/12/13 07:14:05;;;;;;;57.03;23.15;;;-5.20;99.90;;;;;;5092369;28;20048;-85
2022/12/13 07:16:32;;;;;;;53.75;21.75;;;-5.20;99.90;;;;;;5092133;28;20059;-85
2022/12/13 07:19:00;;;;;;;60.03;23.35;;;-5.20;99.90;;;;;;5075678;28;20036;-84
2022/12/13 07:21:28;;;;;;;54.60;22.63;;;-5.20;99.90;;;;;;5092161;28;20183;-85
2022/12/13 07:23:54;;;;;;;54.47;21.45;;;-5.20;99.90;;;;;;5098285;28;20081;-84
2022/12/13 07:26:22;;;;;;;51.67;22.88;;;-5.20;99.90;;;;;;5102632;28;20495;-83
2022/12/13 07:28:48;;;;;;;52.50;20.23;;;-5.20;99.90;;;;;;5080213;28;20495;-85
2022/12/13 07:31:15;;;;;;;56.47;21.50;;;-5.20;99.90;;;;;;5078338;28;20063;-84
2022/12/13 07:33:42;;;;;;;53.75;21.70;;;-5.20;99.90;;;;;;5051169;28;20093;-84
2022/12/13 07:36:17;;;;;;;47.17;21.63;;;-5.20;99.90;;;;;;5068617;28;20041;-85
2022/12/13 07:38:49;;;;;;;56.70;21.60;;;-5.10;99.90;;;;;;5098017;28;20044;-85
2022/12/13 07:41:15;;;;;;;55.85;21.50;;;-5.10;99.90;;;;;;5106348;28;20127;-84
2022/12/13 07:43:42;;;;;;;58.17;21.33;;;-5.10;99.90;;;;;;5081996;28;20819;-85
2022/12/13 07:46:10;;;;;;;54.25;21.60;;;-5.10;99.90;;;;;;5088796;28;20408;-84
2022/12/13 07:48:37;;;;;;;49.03;21.83;;;-5.00;99.90;;;;;;5066398;28;20059;-85
2022/12/13 07:51:06;;;;;;;52.13;22.55;;;-5.00;99.90;;;;;;5093537;28;20040;-84
2022/12/13 07:53:33;;;;;;;50.60;21.42;;;-5.00;99.90;;;;;;5089923;28;20040;-84
2022/12/13 07:56:02;;;;;;;47.55;20.92;;;-5.00;99.90;;;;;;5096996;28;20047;-85
2022/12/13 07:58:29;;;;;;;51.63;21.83;;;-5.00;99.90;;;;;;5111552;28;20043;-83
2022/12/13 08:01:03;;;;;;;51.30;22.70;;;-5.00;99.90;;;;;;5077889;28;20047;-84
2022/12/13 08:03:30;;;;;;;51.92;21.92;;;-5.00;99.90;;;;;;5096554;28;20047;-83
2022/12/13 08:06:02;;;;;;;51.10;22.83;;;-5.00;99.90;;;;;;5092276;28;20198;-84
2022/12/13 08:08:29;;;;;;;48.08;20.33;;;-5.00;99.90;;;;;;5079148;28;20039;-84
2022/12/13 08:11:03;;;;;;;55.38;21.42;;;-4.00;99.90;;;;;;5109564;28;20498;-85
2022/12/13 08:13:30;;;;;;;53.15;20.85;;;-4.90;99.90;;;;;;5106077;28;20131;-85
2022/12/13 08:16:02;;;;;;;55.95;22.73;;;-4.90;99.90;;;;;;5108463;28;20131;-83
2022/12/13 08:18:29;;;;;;;53.22;21.58;;;-4.90;99.90;;;;;;5076703;28;20569;-84
2022/12/13 08:21:00;;;;;;;50.53;20.88;;;-4.90;99.90;;;;;;5082981;28;20040;-84
2022/12/13 08:23:30;;;;;;;50.22;20.17;;;-4.80;99.90;;;;;;5092510;28;20702;-84
2022/12/13 08:25:57;;;;;;;51.22;19.63;;;-4.90;99.90;;;;;;5105356;28;20048;-84
2022/12/13 08:28:24;;;;;;;45.58;20.27;;;-4.70;99.90;;;;;;5105537;28;20043;-83
2022/12/13 08:30:51;;;;;;;59.50;24.35;;;-4.80;99.90;;;;;;5097093;28;20119;-84
2022/12/13 08:33:18;;;;;;;58.63;23.52;;;-4.80;99.90;;;;;;5086937;28;20043;-83
2022/12/13 08:35:46;;;;;;;61.47;25.00;;;-4.80;99.90;;;;;;5092602;28;20483;-84
2022/12/13 08:38:13;;;;;;;56.03;24.02;;;-4.80;99.90;;;;;;5094092;28;20039;-84
2022/12/13 08:40:40;;;;;;;68.57;26.15;;;-4.80;99.90;;;;;;5093388;28;20038;-84
2022/12/13 08:43:07;;;;;;;51.47;22.40;;;-4.80;99.90;;;;;;5061160;28;20051;-85
2022/12/13 08:45:33;;;;;;;53.13;22.33;;;-4.80;99.90;;;;;;5078028;28;20404;-85
2022/12/13 08:48:01;;;;;;;50.88;22.20;;;-4.70;99.90;;;;;;5077994;28;20039;-85
2022/12/13 08:50:29;;;;;;;48.72;20.10;;;-4.70;99.90;;;;;;5094252;28;20036;-85
2022/12/13 08:52:56;;;;;;;53.17;21.48;;;-4.70;99.90;;;;;;5093919;28;20098;-83
2022/12/13 08:55:23;;;;;;;56.63;23.33;;;-4.70;99.90;;;;;;5077756;28;20044;-85
2022/12/13 08:57:49;;;;;;;52.85;21.58;;;-4.70;99.90;;;;;;5092817;28;20412;-86
2022/12/13 09:00:18;;;;;;;51.90;21.85;;;-4.60;99.90;;;;;;5061789;28;20036;-85
2022/12/13 09:02:45;;;;;;;54.75;22.13;;;-4.60;99.90;;;;;;5094200;28;20127;-84
2022/12/13 09:05:12;;;;;;;52.88;22.83;;;-4.50;99.90;;;;;;5110627;28;20181;-85
2022/12/13 09:07:40;;;;;;;55.20;23.30;;;-4.50;99.90;;;;;;5110847;28;20043;-85
2022/12/13 09:10:08;;;;;;;48.15;22.08;;;-4.40;99.90;;;;;;5110255;28;20114;-84
2022/12/13 09:12:34;;;;;;;52.38;21.35;;;-4.40;99.90;;;;;;5093920;28;20048;-85
2022/12/13 09:15:01;;;;;;;51.90;22.13;;;-3.60;99.90;;;;;;5093816;28;20036;-86
2022/12/13 09:17:32;;;;;;;61.40;23.65;;;-4.40;99.90;;;;;;5075806;28;20119;-84
2022/12/13 09:19:58;;;;;;;61.85;23.88;;;-3.60;99.90;;;;;;5073646;28;20174;-85
2022/12/13 09:22:25;;;;;;;47.28;20.38;;;-4.30;99.90;;;;;;5076515;28;20728;-85
2022/12/13 09:24:52;;;;;;;55.50;22.25;;;-4.20;99.90;;;;;;5109278;28;20048;-85
2022/12/13 09:27:20;;;;;;;55.33;23.00;;;-4.20;99.90;;;;;;5101451;28;20040;-85
2022/12/13 09:29:46;;;;;;;58.90;22.92;;;-3.90;99.90;;;;;;5093527;28;20082;-85
2022/12/13 09:32:13;;;;;;;54.90;22.67;;;-3.70;99.90;;;;;;5060702;28;20549;-85
2022/12/13 09:34:39;;;;;;;53.28;22.65;;;-4.10;99.90;;;;;;5093551;28;20204;-85
2022/12/13 09:37:07;;;;;;;47.97;21.67;;;-4.10;99.90;;;;;;5076353;28;20409;-85
2022/12/13 09:39:34;;;;;;;47.25;21.38;;;-4.10;99.90;;;;;;5077274;28;20043;-85
2022/12/13 09:42:01;;;;;;;48.30;21.35;;;-4.10;99.90;;;;;;5076365;28;20476;-85
2022/12/13 09:44:37;;;;;;;44.80;20.17;;;-4.00;99.90;;;;;;5093382;28;20036;-85
2022/12/13 09:47:10;;;;;;;53.50;21.33;;;-4.00;99.90;;;;;;5093343;28;20089;-85
2022/12/13 09:49:44;;;;;;;49.38;21.45;;;-4.00;99.90;;;;;;5093202;28;20042;-86
2022/12/13 09:52:17;;;;;;;53.67;22.52;;;-3.90;99.90;;;;;;5093147;28;20461;-85
2022/12/13 09:54:44;;;;;;;56.58;23.65;;;-3.90;99.90;;;;;;5093274;28;20127;-85
2022/12/13 09:57:24;;;;;;;61.33;26.85;;;-3.90;99.90;;;;;;5076618;28;20043;-86
2022/12/13 09:59:51;;;;;;;57.42;23.98;;;-3.90;99.90;;;;;;5109852;28;20491;-86
2022/12/13 10:02:28;;;;;;;58.22;24.52;;;-3.90;99.90;;;;;;5093247;28;20054;-86
2022/12/13 10:05:14;;;;;;;53.85;22.42;;;-3.80;99.90;;;;;;5092854;28;20101;-85
2022/12/13 10:07:42;;;;;;;54.90;23.27;;;-3.80;99.90;;;;;;5079406;28;20040;-87
2022/12/13 10:10:11;;;;;;;57.15;23.10;;;-3.30;99.90;;;;;;5072943;28;20037;-86
2022/12/13 10:12:38;;;;;;;51.78;22.65;;;-3.70;99.90;;;;;;5072989;28;20104;-86
2022/12/13 10:15:07;;;;;;;52.40;22.48;;;-3.70;99.90;;;;;;5040148;28;20404;-85
2022/12/13 10:17:39;;;;;;;56.38;21.27;;;-3.70;99.90;;;;;;5074120;28;20131;-86
2022/12/13 10:20:14;;;;;;;51.47;21.20;;;-3.60;99.90;;;;;;5095616;28;20074;-86
2022/12/13 10:22:41;;;;;;;55.33;23.50;;;-3.60;99.90;;;;;;5077955;28;20081;-86
2022/12/13 10:25:08;;;;;;;54.33;22.20;;;-3.60;99.90;;;;;;5092130;28;20111;-85
2022/12/13 10:27:41;;;;;;;55.30;21.58;;;-3.60;99.90;;;;;;5102408;28;20048;-85
2022/12/13 10:30:15;;;;;;;49.58;21.88;;;-3.60;99.90;;;;;;5082192;28;20036;-86
2022/12/13 10:32:58;;;;;;;57.10;23.52;;;-2.80;99.90;;;;;;5093108;28;20089;-86
2022/12/13 10:35:31;;;;;;;61.20;23.45;;;-2.30;99.90;;;;;;5092296;28;20503;-85
2022/12/13 10:38:11;;;;;;;52.25;23.08;;;-3.40;99.90;;;;;;5109481;28;20119;-85
2022/12/13 10:40:42;;;;;;;57.63;23.77;;;-3.40;99.90;;;;;;5092406;28;20127;-85
2022/12/13 10:43:14;;;;;;;57.92;23.50;;;-3.30;99.90;;;;;;5092447;28;20046;-85
2022/12/13 10:45:43;;;;;;;54.35;23.10;;;-3.30;99.90;;;;;;5080677;28;20045;-86
2022/12/13 10:48:21;;;;;;;63.17;25.27;;;-3.30;99.90;;;;;;5065832;28;20028;-86
2022/12/13 10:51:04;;;;;;;64.20;25.27;;;-3.20;99.90;;;;;;5109711;28;20502;-86
2022/12/13 10:53:38;;;;;;;62.83;24.30;;;-3.20;99.90;;;;;;5108951;28;20505;-86
2022/12/13 10:56:06;;;;;;;55.75;23.45;;;-3.20;99.90;;;;;;5109363;28;20048;-86
2022/12/13 10:58:45;;;;;;;65.30;24.38;;;-3.20;99.90;;;;;;5092521;28;20047;-86
2022/12/13 11:01:18;;;;;;;66.95;25.10;;;-3.10;99.90;;;;;;5092685;28;20516;-86
2022/12/13 11:04:28;;;;;;;63.65;25.75;;;-3.10;99.90;;;;;;5092408;28;20040;-86
2022/12/13 11:06:56;;;;;;;56.08;23.55;;;-3.10;99.90;;;;;;5109084;28;20063;-85
2022/12/13 11:09:34;;;;;;;55.35;24.33;;;-3.00;99.90;;;;;;5092482;28;20128;-87
2022/12/13 11:12:10;;;;;;;67.43;25.60;;;-3.00;99.90;;;;;;5075650;28;20036;-85
2022/12/13 11:14:47;;;;;;;61.15;24.05;;;-2.90;99.90;;;;;;5094893;28;20038;-86
2022/12/13 11:17:19;;;;;;;53.15;23.65;;;-2.90;99.90;;;;;;5092826;28;20036;-86
2022/12/13 11:19:53;;;;;;;54.45;24.67;;;-2.80;99.90;;;;;;5092259;28;20050;-86
2022/12/13 11:22:28;;;;;;;56.15;23.75;;;-2.80;99.90;;;;;;5095903;28;20122;-86
2022/12/13 11:25:06;;;;;;;54.88;23.60;;;-2.80;99.90;;;;;;5075860;28;20144;-87
2022/12/13 11:27:51;;;;;;;61.17;24.67;;;-1.50;99.90;;;;;;5076345;28;20123;-86
2022/12/13 11:30:21;;;;;;;59.33;23.92;;;-2.70;99.90;;;;;;5094893;28;20047;-86
2022/12/13 11:33:18;;;;;;;55.08;25.45;;;-2.60;99.90;;;;;;5096323;28;20040;-86
2022/12/13 11:36:12;;;;;;;60.55;24.45;;;-2.60;99.90;;;;;;5111511;28;20044;-86
2022/12/13 11:39:13;;;;;;;56.15;23.65;;;-2.60;99.90;;;;;;5075859;28;20135;-86
2022/12/13 11:41:54;;;;;;;57.63;24.27;;;-2.60;99.90;;;;;;5081749;28;20044;-85
2022/12/13 11:44:33;;;;;;;54.28;23.58;;;-2.50;99.90;;;;;;5075429;28;20467;-86
2022/12/13 11:47:00;;;;;;;54.95;24.45;;;-2.50;99.90;;;;;;5092450;28;20045;-86
2022/12/13 11:49:36;;;;;;;59.85;24.52;;;-2.50;99.90;;;;;;5095740;28;20136;-86
2022/12/13 11:52:12;;;;;;;;;;;-2.30;99.90;;;;;;5096069;28;20092;-86
2022/12/13 11:54:57;;;;;;;59.53;24.80;;;-2.40;99.90;;;;;;5095437;28;19916;-86
2022/12/13 11:57:41;;;;;;;57.78;24.90;;;-2.30;99.90;;;;;;5095684;28;20079;-86
2022/12/13 12:00:32;;;;;;;59.10;25.05;;;-2.30;99.90;;;;;;5111867;28;20040;-85
2022/12/13 12:03:30;;;;;;;63.40;25.50;;;-2.30;99.90;;;;;;5095343;28;20080;-86
2022/12/13 12:06:13;;;;;;;60.53;26.02;;;-2.30;99.90;;;;;;5075576;28;20036;-86
2022/12/13 12:08:43;;;;;;;61.08;25.63;;;-2.10;99.90;;;;;;5092160;28;20040;-86
2022/12/13 12:11:34;;;;;;;60.38;27.42;;;-2.30;99.90;;;;;;5074798;28;20489;-86
2022/12/13 12:14:16;;;;;;;66.20;26.98;;;-2.20;99.90;;;;;;5075158;28;20056;-86
2022/12/13 12:16:54;;;;;;;63.83;27.23;;;-2.20;99.90;;;;;;5075133;28;20048;-86
2022/12/13 12:19:40;;;;;;;55.55;26.50;;;-2.10;99.90;;;;;;5107921;28;20040;-86
2022/12/13 12:22:25;;;;;;;64.13;27.33;;;-1.90;99.90;;;;;;5095831;28;20039;-86
2022/12/13 12:25:01;;;;;;;58.47;25.85;;;-2.10;99.90;;;;;;5092668;28;20416;-87
2022/12/13 12:27:45;;;;;;;57.65;27.98;;;-2.00;99.90;;;;;;5111789;28;20044;-86
2022/12/13 12:30:12;;;;;;;65.13;28.10;;;-2.00;99.90;;;;;;5095086;28;20032;-81
2022/12/13 12:32:49;;;;;;;61.42;28.25;;;-1.80;99.90;;;;;;5094339;28;20078;-85
2022/12/13 12:35:50;;;;;;;57.38;25.80;;;-1.90;99.90;;;;;;5094709;28;20131;-86
2022/12/13 12:38:53;;;;;;;59.60;26.55;;;-1.90;99.90;;;;;;5094327;28;20051;-86
2022/12/13 12:41:41;;;;;;;55.33;25.02;;;-1.90;99.90;;;;;;5094318;28;20048;-86
2022/12/13 12:44:40;;;;;;;54.65;24.27;;;-1.90;99.90;;;;;;5109144;28;20519;-86
2022/12/13 12:47:29;;;;;;;61.17;25.92;;;-1.90;99.90;;;;;;5093628;28;20744;-86
2022/12/13 12:50:22;;;;;;;59.97;25.23;;;-1.80;99.90;;;;;;5089212;28;20108;-87
2022/12/13 12:53:22;;;;;;;58.55;26.10;;;-1.80;99.90;;;;;;5094494;28;20115;-87
2022/12/13 12:56:20;;;;;;;62.20;26.63;;;-1.80;99.90;;;;;;5093676;28;20048;-86